Terminal Aerodrome Forecast
Issued by NWS

Home | Current Version | Previous Version | Graphics & Text | Print | Product List | Glossary On
Versions: 1 2 3 4 5 6 7 8 9 10 11 12 13 14 15 16 17 18 19 20 21 22 23 24 25
000
FTUS41 KCLE 252324
TAFFDY
TAF
KFDY 252324Z 2600/2624 07010KT P6SM SCT050 BKN100
      TEMPO 2602/2606 OVC050
     FM260600 11008KT P6SM OVC050
      TEMPO 2609/2612 5SM -SHRA OVC025
     FM261700 19012G20KT P6SM VCSH OVC015 PROB30 2618/2624 2SM -RA
      OVC010=

USA.gov is the U.S. government's official web portal to all federal, state and local government web resources and services.